Главная страница
METAR-TAF:

METAR-TAF

Аэропорты :

Нуси-Бураха, Мадагаскар

широта: 17-05S, долгота: 049-49E, высота над уровнем моря: 2 м

Текущие метеонаблюдения

Эта сводка был подготовлена 7 часа и 44 минут назад, в 06:00 UTC
Ветер 12 Узел от южный
Температура 28°C
Влажность 70%
Давление 1014 hPa
Видимость 10 км и более
небольшая облачность на высоте 1700 фута
Рассеянная облачность на высоте 25000 фута
ливни в окрестностях,

METAR: FMMS 030600Z 18012KT 9999 VCSH FEW017 BKN250 28/22 Q1014

Время: 16:44 (13:44 UTC)


TAF: отсутствует

Метеонаблюдения и прогнозы для более 4000 аэропортов (сводки METAR и TAF).

Имеющиеся станции представлены на карте желтыми и красными точками.

Чтобы увидеть название станции, наведите на нее мышь.

Затем щелкните, чтобы увидеть метеонаблюдения и метеопрогнозы.

Управление картой: чтобы увеличить масштаб, щелкните зеленые кнопки с черным крестиком; чтобы уменьшить масштаб, щелкните зеленую кнопку с тире; для просмотра соседних карт щелкайте зеленые стрелки.


METAR-TAF: